sensor_id;sensor_type;location;lat;lon;timestamp;pressure;altitude;pressure_sealevel;temperature;humidity
81545;BME280;70990;50.618;7.346;2023-10-09T00:00:35;98769.06;;;14.96;84.45
81545;BME280;70990;50.618;7.346;2023-10-09T00:03:02;98765.75;;;15.01;84.30
81545;BME280;70990;50.618;7.346;2023-10-09T00:05:29;98760.06;;;14.88;84.66
81545;BME280;70990;50.618;7.346;2023-10-09T00:07:55;98759.13;;;14.95;84.52
81545;BME280;70990;50.618;7.346;2023-10-09T00:10:22;98754.06;;;14.70;84.78
81545;BME280;70990;50.618;7.346;2023-10-09T00:12:49;98747.19;;;15.14;79.93
81545;BME280;70990;50.618;7.346;2023-10-09T00:15:16;98748.72;;;15.55;75.95
81545;BME280;70990;50.618;7.346;2023-10-09T00:17:44;98739.31;;;15.81;74.70
81545;BME280;70990;50.618;7.346;2023-10-09T00:20:10;98742.78;;;15.69;77.45
81545;BME280;70990;50.618;7.346;2023-10-09T00:22:37;98749.00;;;15.41;81.03
81545;BME280;70990;50.618;7.346;2023-10-09T00:25:04;98750.53;;;15.25;81.77
81545;BME280;70990;50.618;7.346;2023-10-09T00:27:31;98740.84;;;15.14;81.89
81545;BME280;70990;50.618;7.346;2023-10-09T00:29:58;98747.06;;;15.02;83.18
81545;BME280;70990;50.618;7.346;2023-10-09T00:32:24;98748.88;;;14.92;84.05
81545;BME280;70990;50.618;7.346;2023-10-09T00:34:51;98747.63;;;14.93;83.77
81545;BME280;70990;50.618;7.346;2023-10-09T00:37:19;98740.44;;;14.96;82.67
81545;BME280;70990;50.618;7.346;2023-10-09T00:39:47;98736.03;;;14.98;82.31
81545;BME280;70990;50.618;7.346;2023-10-09T00:42:14;98740.88;;;14.94;82.25
81545;BME280;70990;50.618;7.346;2023-10-09T00:44:41;98739.72;;;15.11;79.87
81545;BME280;70990;50.618;7.346;2023-10-09T00:47:12;98742.50;;;15.11;80.25
81545;BME280;70990;50.618;7.346;2023-10-09T00:49:39;98740.22;;;15.06;80.08
81545;BME280;70990;50.618;7.346;2023-10-09T00:52:05;98741.09;;;15.39;76.55
81545;BME280;70990;50.618;7.346;2023-10-09T00:54:32;98735.75;;;15.28;79.99
81545;BME280;70990;50.618;7.346;2023-10-09T00:56:58;98733.81;;;15.25;79.59
81545;BME280;70990;50.618;7.346;2023-10-09T00:59:26;98726.13;;;15.13;80.40
81545;BME280;70990;50.618;7.346;2023-10-09T01:01:53;98727.06;;;15.07;80.92
81545;BME280;70990;50.618;7.346;2023-10-09T01:04:19;98721.63;;;15.19;78.88
81545;BME280;70990;50.618;7.346;2023-10-09T01:06:47;98723.69;;;15.51;75.32
81545;BME280;70990;50.618;7.346;2023-10-09T01:09:14;98724.34;;;15.75;72.81
81545;BME280;70990;50.618;7.346;2023-10-09T01:11:41;98720.78;;;15.58;77.19
81545;BME280;70990;50.618;7.346;2023-10-09T01:14:08;98711.28;;;15.88;73.40
81545;BME280;70990;50.618;7.346;2023-10-09T01:16:35;98711.66;;;15.74;75.73
81545;BME280;70990;50.618;7.346;2023-10-09T01:19:03;98705.41;;;15.50;77.02
81545;BME280;70990;50.618;7.346;2023-10-09T01:21:30;98713.91;;;15.79;75.31
81545;BME280;70990;50.618;7.346;2023-10-09T01:23:57;98706.75;;;15.62;76.36
81545;BME280;70990;50.618;7.346;2023-10-09T01:26:24;98707.22;;;15.41;77.95
81545;BME280;70990;50.618;7.346;2023-10-09T01:28:51;98698.09;;;15.40;77.63
81545;BME280;70990;50.618;7.346;2023-10-09T01:31:18;98703.72;;;15.37;74.82
81545;BME280;70990;50.618;7.346;2023-10-09T01:33:45;98695.84;;;15.51;74.64
81545;BME280;70990;50.618;7.346;2023-10-09T01:36:11;98695.56;;;15.46;74.75
81545;BME280;70990;50.618;7.346;2023-10-09T01:38:38;98692.47;;;15.92;71.86
81545;BME280;70990;50.618;7.346;2023-10-09T01:41:04;98698.38;;;15.94;72.46
81545;BME280;70990;50.618;7.346;2023-10-09T01:43:31;98696.44;;;16.07;71.54
81545;BME280;70990;50.618;7.346;2023-10-09T01:45:58;98699.34;;;16.04;70.98
81545;BME280;70990;50.618;7.346;2023-10-09T01:48:24;98697.63;;;15.61;76.48
81545;BME280;70990;50.618;7.346;2023-10-09T01:50:51;98691.63;;;15.27;78.52
81545;BME280;70990;50.618;7.346;2023-10-09T01:53:18;98691.25;;;15.09;78.79
81545;BME280;70990;50.618;7.346;2023-10-09T01:55:44;98695.28;;;14.88;79.79
81545;BME280;70990;50.618;7.346;2023-10-09T01:58:11;98702.13;;;15.03;78.35
81545;BME280;70990;50.618;7.346;2023-10-09T02:00:38;98697.28;;;14.87;78.55
81545;BME280;70990;50.618;7.346;2023-10-09T02:03:04;98696.84;;;14.89;78.58
81545;BME280;70990;50.618;7.346;2023-10-09T02:05:32;98693.56;;;14.94;78.59
81545;BME280;70990;50.618;7.346;2023-10-09T02:07:59;98692.94;;;14.86;78.83
81545;BME280;70990;50.618;7.346;2023-10-09T02:10:26;98690.72;;;14.78;78.97
81545;BME280;70990;50.618;7.346;2023-10-09T02:12:55;98685.09;;;14.81;79.29
81545;BME280;70990;50.618;7.346;2023-10-09T02:15:30;98674.03;;;14.78;79.44
81545;BME280;70990;50.618;7.346;2023-10-09T02:17:57;98678.06;;;14.93;78.47
81545;BME280;70990;50.618;7.346;2023-10-09T02:20:24;98677.13;;;15.00;77.91
81545;BME280;70990;50.618;7.346;2023-10-09T02:22:50;98667.16;;;15.02;78.25
81545;BME280;70990;50.618;7.346;2023-10-09T02:25:18;98664.63;;;15.08;77.24
81545;BME280;70990;50.618;7.346;2023-10-09T02:27:46;98652.66;;;15.11;77.40
81545;BME280;70990;50.618;7.346;2023-10-09T02:30:12;98660.06;;;15.17;77.16
81545;BME280;70990;50.618;7.346;2023-10-09T02:32:39;98667.63;;;15.17;77.17
81545;BME280;70990;50.618;7.346;2023-10-09T02:35:06;98662.47;;;15.15;77.11
81545;BME280;70990;50.618;7.346;2023-10-09T02:37:32;98659.09;;;15.24;76.96
81545;BME280;70990;50.618;7.346;2023-10-09T02:39:59;98653.81;;;15.29;76.21
81545;BME280;70990;50.618;7.346;2023-10-09T02:42:26;98662.47;;;15.31;76.28
81545;BME280;70990;50.618;7.346;2023-10-09T02:44:53;98667.53;;;15.37;76.79
81545;BME280;70990;50.618;7.346;2023-10-09T02:47:20;98666.47;;;15.30;76.89
81545;BME280;70990;50.618;7.346;2023-10-09T02:49:47;98666.56;;;15.27;77.50
81545;BME280;70990;50.618;7.346;2023-10-09T02:52:15;98660.22;;;15.10;77.83
81545;BME280;70990;50.618;7.346;2023-10-09T02:54:41;98660.78;;;15.02;77.62
81545;BME280;70990;50.618;7.346;2023-10-09T02:57:08;98666.84;;;15.16;77.16
81545;BME280;70990;50.618;7.346;2023-10-09T02:59:35;98663.00;;;15.10;77.58
81545;BME280;70990;50.618;7.346;2023-10-09T03:02:02;98668.00;;;14.99;78.55
81545;BME280;70990;50.618;7.346;2023-10-09T03:04:29;98663.31;;;15.12;77.37
81545;BME280;70990;50.618;7.346;2023-10-09T03:06:58;98658.81;;;15.18;77.43
81545;BME280;70990;50.618;7.346;2023-10-09T03:09:26;98659.53;;;15.39;77.56
81545;BME280;70990;50.618;7.346;2023-10-09T03:11:58;98653.69;;;15.33;76.80
81545;BME280;70990;50.618;7.346;2023-10-09T03:14:24;98651.34;;;15.31;77.04
81545;BME280;70990;50.618;7.346;2023-10-09T03:16:52;98647.50;;;15.25;77.13
81545;BME280;70990;50.618;7.346;2023-10-09T03:19:19;98660.84;;;15.34;77.04
81545;BME280;70990;50.618;7.346;2023-10-09T03:21:45;98651.69;;;15.33;76.74
81545;BME280;70990;50.618;7.346;2023-10-09T03:24:12;98653.34;;;15.31;77.52
81545;BME280;70990;50.618;7.346;2023-10-09T03:26:39;98662.84;;;15.50;76.47
81545;BME280;70990;50.618;7.346;2023-10-09T03:29:06;98651.00;;;15.46;77.36
81545;BME280;70990;50.618;7.346;2023-10-09T03:31:33;98652.25;;;15.77;75.60
81545;BME280;70990;50.618;7.346;2023-10-09T03:34:00;98644.50;;;15.85;75.64
81545;BME280;70990;50.618;7.346;2023-10-09T03:36:35;98645.94;;;15.89;75.33
81545;BME280;70990;50.618;7.346;2023-10-09T03:39:06;98649.41;;;15.93;75.07
81545;BME280;70990;50.618;7.346;2023-10-09T03:41:32;98644.38;;;16.04;74.90
81545;BME280;70990;50.618;7.346;2023-10-09T03:43:59;98644.56;;;15.97;75.47
81545;BME280;70990;50.618;7.346;2023-10-09T03:46:26;98642.25;;;16.08;75.09
81545;BME280;70990;50.618;7.346;2023-10-09T03:48:54;98649.22;;;16.17;75.14
81545;BME280;70990;50.618;7.346;2023-10-09T03:51:20;98642.63;;;15.94;75.12
81545;BME280;70990;50.618;7.346;2023-10-09T03:53:48;98648.19;;;15.94;76.11
81545;BME280;70990;50.618;7.346;2023-10-09T03:56:15;98655.44;;;15.92;75.48
81545;BME280;70990;50.618;7.346;2023-10-09T03:58:46;98655.44;;;15.92;76.11
81545;BME280;70990;50.618;7.346;2023-10-09T04:01:14;98659.75;;;15.80;76.10
81545;BME280;70990;50.618;7.346;2023-10-09T04:03:43;98646.06;;;15.86;75.86
81545;BME280;70990;50.618;7.346;2023-10-09T04:06:10;98655.00;;;15.93;75.33
81545;BME280;70990;50.618;7.346;2023-10-09T04:08:37;98650.13;;;15.81;75.73
81545;BME280;70990;50.618;7.346;2023-10-09T04:11:05;98653.44;;;15.92;75.70
81545;BME280;70990;50.618;7.346;2023-10-09T04:13:34;98640.88;;;16.00;75.62
81545;BME280;70990;50.618;7.346;2023-10-09T04:16:02;98642.94;;;16.12;75.03
81545;BME280;70990;50.618;7.346;2023-10-09T04:18:28;98640.69;;;16.36;74.02
81545;BME280;70990;50.618;7.346;2023-10-09T04:20:55;98642.47;;;16.43;73.90
81545;BME280;70990;50.618;7.346;2023-10-09T04:23:22;98639.44;;;16.37;74.58
81545;BME280;70990;50.618;7.346;2023-10-09T04:25:49;98632.56;;;16.42;73.66
81545;BME280;70990;50.618;7.346;2023-10-09T04:28:15;98628.16;;;16.28;74.50
81545;BME280;70990;50.618;7.346;2023-10-09T04:30:42;98640.00;;;16.32;74.25
81545;BME280;70990;50.618;7.346;2023-10-09T04:33:09;98643.81;;;16.38;74.19
81545;BME280;70990;50.618;7.346;2023-10-09T04:35:36;98630.66;;;16.39;73.67
81545;BME280;70990;50.618;7.346;2023-10-09T04:38:03;98642.03;;;16.44;73.67
81545;BME280;70990;50.618;7.346;2023-10-09T04:40:29;98634.88;;;16.43;73.54
81545;BME280;70990;50.618;7.346;2023-10-09T04:42:56;98631.00;;;16.41;73.50
81545;BME280;70990;50.618;7.346;2023-10-09T04:45:23;98622.00;;;16.21;74.35
81545;BME280;70990;50.618;7.346;2023-10-09T04:47:49;98631.53;;;16.36;73.88
81545;BME280;70990;50.618;7.346;2023-10-09T04:50:16;98624.13;;;16.17;74.33
81545;BME280;70990;50.618;7.346;2023-10-09T04:52:43;98621.41;;;16.42;74.50
81545;BME280;70990;50.618;7.346;2023-10-09T04:55:10;98631.44;;;16.39;73.61
81545;BME280;70990;50.618;7.346;2023-10-09T05:00:05;98628.84;;;16.32;74.57
81545;BME280;70990;50.618;7.346;2023-10-09T05:02:33;98635.50;;;16.22;74.22
81545;BME280;70990;50.618;7.346;2023-10-09T05:04:59;98640.94;;;16.42;74.14
81545;BME280;70990;50.618;7.346;2023-10-09T05:07:26;98630.09;;;16.44;73.27
81545;BME280;70990;50.618;7.346;2023-10-09T05:09:53;98634.41;;;16.32;74.76
81545;BME280;70990;50.618;7.346;2023-10-09T05:12:20;98632.19;;;16.27;74.79
81545;BME280;70990;50.618;7.346;2023-10-09T05:14:47;98632.56;;;16.13;75.14
81545;BME280;70990;50.618;7.346;2023-10-09T05:17:13;98628.91;;;16.16;74.63
81545;BME280;70990;50.618;7.346;2023-10-09T05:19:40;98625.34;;;16.16;74.14
81545;BME280;70990;50.618;7.346;2023-10-09T05:22:09;98622.53;;;16.16;75.07
81545;BME280;70990;50.618;7.346;2023-10-09T05:24:35;98630.47;;;16.17;75.86
81545;BME280;70990;50.618;7.346;2023-10-09T05:27:02;98629.72;;;16.00;76.32
81545;BME280;70990;50.618;7.346;2023-10-09T05:29:28;98639.88;;;15.46;78.07
81545;BME280;70990;50.618;7.346;2023-10-09T05:31:55;98636.22;;;15.16;78.84
81545;BME280;70990;50.618;7.346;2023-10-09T05:34:25;98641.44;;;14.78;80.44
81545;BME280;70990;50.618;7.346;2023-10-09T05:36:52;98648.63;;;14.76;80.82
81545;BME280;70990;50.618;7.346;2023-10-09T05:39:18;98651.09;;;14.74;81.22
81545;BME280;70990;50.618;7.346;2023-10-09T05:41:45;98657.34;;;14.78;80.80
81545;BME280;70990;50.618;7.346;2023-10-09T05:44:12;98649.69;;;14.82;80.78
81545;BME280;70990;50.618;7.346;2023-10-09T05:46:38;98652.03;;;14.67;82.25
81545;BME280;70990;50.618;7.346;2023-10-09T05:49:05;98650.22;;;14.77;81.31
81545;BME280;70990;50.618;7.346;2023-10-09T05:51:32;98627.38;;;14.85;80.98
81545;BME280;70990;50.618;7.346;2023-10-09T05:53:58;98641.88;;;14.93;81.44
81545;BME280;70990;50.618;7.346;2023-10-09T05:56:25;98636.53;;;15.02;81.38
81545;BME280;70990;50.618;7.346;2023-10-09T05:58:51;98633.91;;;14.95;81.31
81545;BME280;70990;50.618;7.346;2023-10-09T06:01:18;98623.13;;;15.13;81.16
81545;BME280;70990;50.618;7.346;2023-10-09T06:03:45;98625.50;;;14.99;81.52
81545;BME280;70990;50.618;7.346;2023-10-09T06:06:12;98626.28;;;15.15;81.14
81545;BME280;70990;50.618;7.346;2023-10-09T06:08:38;98627.59;;;15.11;81.03
81545;BME280;70990;50.618;7.346;2023-10-09T06:11:07;98636.03;;;15.23;81.17
81545;BME280;70990;50.618;7.346;2023-10-09T06:13:33;98642.41;;;15.24;81.14
81545;BME280;70990;50.618;7.346;2023-10-09T06:16:00;98642.28;;;15.11;81.61
81545;BME280;70990;50.618;7.346;2023-10-09T06:18:27;98642.47;;;15.04;81.26
81545;BME280;70990;50.618;7.346;2023-10-09T06:20:54;98644.50;;;14.84;82.98
81545;BME280;70990;50.618;7.346;2023-10-09T06:23:20;98644.28;;;14.75;82.88
81545;BME280;70990;50.618;7.346;2023-10-09T06:25:47;98641.75;;;14.64;82.81
81545;BME280;70990;50.618;7.346;2023-10-09T06:28:14;98640.75;;;14.55;83.56
81545;BME280;70990;50.618;7.346;2023-10-09T06:30:40;98641.69;;;14.68;83.35
81545;BME280;70990;50.618;7.346;2023-10-09T06:33:07;98645.91;;;14.92;82.21
81545;BME280;70990;50.618;7.346;2023-10-09T06:35:34;98642.00;;;15.06;82.28
81545;BME280;70990;50.618;7.346;2023-10-09T06:38:02;98644.03;;;15.05;82.16
81545;BME280;70990;50.618;7.346;2023-10-09T06:40:39;98656.53;;;15.13;82.04
81545;BME280;70990;50.618;7.346;2023-10-09T06:43:06;98672.28;;;15.04;83.54
81545;BME280;70990;50.618;7.346;2023-10-09T06:45:37;98673.06;;;15.04;82.93
81545;BME280;70990;50.618;7.346;2023-10-09T06:48:04;98678.44;;;14.95;82.99
81545;BME280;70990;50.618;7.346;2023-10-09T06:50:34;98665.72;;;14.94;83.27
81545;BME280;70990;50.618;7.346;2023-10-09T06:53:01;98659.16;;;15.04;83.28
81545;BME280;70990;50.618;7.346;2023-10-09T06:55:28;98666.56;;;15.11;82.53
81545;BME280;70990;50.618;7.346;2023-10-09T06:57:54;98667.19;;;15.34;81.62
81545;BME280;70990;50.618;7.346;2023-10-09T07:00:21;98671.34;;;15.26;82.15
81545;BME280;70990;50.618;7.346;2023-10-09T07:02:47;98655.78;;;15.45;82.65
81545;BME280;70990;50.618;7.346;2023-10-09T07:05:14;98661.22;;;15.52;82.46
81545;BME280;70990;50.618;7.346;2023-10-09T07:07:40;98658.63;;;15.61;82.37
81545;BME280;70990;50.618;7.346;2023-10-09T07:10:07;98673.19;;;15.49;82.96
81545;BME280;70990;50.618;7.346;2023-10-09T07:12:37;98675.94;;;15.69;81.23
81545;BME280;70990;50.618;7.346;2023-10-09T07:15:05;98673.59;;;15.67;81.47
81545;BME280;70990;50.618;7.346;2023-10-09T07:17:32;98671.91;;;15.70;82.02
81545;BME280;70990;50.618;7.346;2023-10-09T07:19:59;98679.25;;;15.80;80.25
81545;BME280;70990;50.618;7.346;2023-10-09T07:22:25;98681.81;;;15.87;80.10
81545;BME280;70990;50.618;7.346;2023-10-09T07:24:53;98679.94;;;15.84;80.51
81545;BME280;70990;50.618;7.346;2023-10-09T07:27:20;98691.59;;;15.95;80.73
81545;BME280;70990;50.618;7.346;2023-10-09T07:29:47;98692.19;;;15.87;81.29
81545;BME280;70990;50.618;7.346;2023-10-09T07:32:14;98702.47;;;15.90;79.93
81545;BME280;70990;50.618;7.346;2023-10-09T07:34:41;98706.47;;;15.89;81.03
81545;BME280;70990;50.618;7.346;2023-10-09T07:37:08;98717.47;;;15.96;80.15
81545;BME280;70990;50.618;7.346;2023-10-09T07:39:34;98714.66;;;15.96;76.55
81545;BME280;70990;50.618;7.346;2023-10-09T07:42:04;98714.56;;;15.99;76.25
81545;BME280;70990;50.618;7.346;2023-10-09T07:44:31;98707.03;;;16.29;73.67
81545;BME280;70990;50.618;7.346;2023-10-09T07:46:58;98707.63;;;16.36;71.54
81545;BME280;70990;50.618;7.346;2023-10-09T07:49:27;98714.81;;;16.66;72.80
81545;BME280;70990;50.618;7.346;2023-10-09T07:51:53;98720.75;;;16.52;77.40
81545;BME280;70990;50.618;7.346;2023-10-09T07:54:20;98719.50;;;16.69;68.94
81545;BME280;70990;50.618;7.346;2023-10-09T07:56:48;98707.25;;;16.79;70.53
81545;BME280;70990;50.618;7.346;2023-10-09T07:59:15;98714.13;;;17.04;67.88
81545;BME280;70990;50.618;7.346;2023-10-09T08:01:47;98717.16;;;17.22;69.53
81545;BME280;70990;50.618;7.346;2023-10-09T08:04:14;98711.91;;;17.11;73.90
81545;BME280;70990;50.618;7.346;2023-10-09T08:06:41;98712.44;;;17.19;78.13
81545;BME280;70990;50.618;7.346;2023-10-09T08:09:28;98709.22;;;17.33;70.93
81545;BME280;70990;50.618;7.346;2023-10-09T08:11:55;98714.94;;;17.29;74.22
81545;BME280;70990;50.618;7.346;2023-10-09T08:14:21;98712.97;;;17.01;77.11
81545;BME280;70990;50.618;7.346;2023-10-09T08:16:50;98726.50;;;17.03;75.52
81545;BME280;70990;50.618;7.346;2023-10-09T08:19:17;98718.13;;;17.03;73.23
81545;BME280;70990;50.618;7.346;2023-10-09T08:21:44;98711.63;;;16.93;75.40
81545;BME280;70990;50.618;7.346;2023-10-09T08:24:11;98723.63;;;17.19;75.03
81545;BME280;70990;50.618;7.346;2023-10-09T08:26:38;98739.38;;;17.25;69.94
81545;BME280;70990;50.618;7.346;2023-10-09T08:29:05;98721.53;;;17.23;73.00
81545;BME280;70990;50.618;7.346;2023-10-09T08:31:31;98715.25;;;17.57;67.80
81545;BME280;70990;50.618;7.346;2023-10-09T08:33:58;98726.56;;;17.79;69.69
81545;BME280;70990;50.618;7.346;2023-10-09T08:36:28;98737.19;;;17.71;67.94
81545;BME280;70990;50.618;7.346;2023-10-09T08:38:58;98738.88;;;17.68;70.29
81545;BME280;70990;50.618;7.346;2023-10-09T08:41:25;98731.03;;;17.89;66.30
81545;BME280;70990;50.618;7.346;2023-10-09T08:43:53;98714.16;;;17.80;69.73
81545;BME280;70990;50.618;7.346;2023-10-09T08:46:22;98732.75;;;17.61;63.67
81545;BME280;70990;50.618;7.346;2023-10-09T08:48:49;98729.94;;;17.73;61.00
81545;BME280;70990;50.618;7.346;2023-10-09T08:51:17;98733.84;;;17.63;61.18
81545;BME280;70990;50.618;7.346;2023-10-09T08:53:44;98752.03;;;17.81;61.23
81545;BME280;70990;50.618;7.346;2023-10-09T08:56:16;98743.34;;;17.79;64.06
81545;BME280;70990;50.618;7.346;2023-10-09T08:58:43;98742.91;;;17.67;57.70
81545;BME280;70990;50.618;7.346;2023-10-09T09:01:16;98741.63;;;17.94;58.66
81545;BME280;70990;50.618;7.346;2023-10-09T09:03:43;98749.00;;;18.00;57.31
81545;BME280;70990;50.618;7.346;2023-10-09T09:06:10;98753.16;;;17.96;62.16
81545;BME280;70990;50.618;7.346;2023-10-09T09:08:40;98758.09;;;17.92;60.95
81545;BME280;70990;50.618;7.346;2023-10-09T09:11:12;98744.53;;;18.03;59.54
81545;BME280;70990;50.618;7.346;2023-10-09T09:16:16;98735.91;;;18.10;57.05
81545;BME280;70990;50.618;7.346;2023-10-09T09:18:54;98737.91;;;18.22;56.06
81545;BME280;70990;50.618;7.346;2023-10-09T09:21:21;98734.75;;;18.20;55.45
81545;BME280;70990;50.618;7.346;2023-10-09T09:23:56;98723.31;;;18.27;54.78
81545;BME280;70990;50.618;7.346;2023-10-09T09:26:37;98732.63;;;18.24;54.50
81545;BME280;70990;50.618;7.346;2023-10-09T09:29:05;98751.50;;;18.33;57.14
81545;BME280;70990;50.618;7.346;2023-10-09T09:31:33;98753.28;;;18.39;57.95
81545;BME280;70990;50.618;7.346;2023-10-09T09:34:00;98757.06;;;18.58;60.02
81545;BME280;70990;50.618;7.346;2023-10-09T09:36:27;98759.56;;;18.78;62.73
81545;BME280;70990;50.618;7.346;2023-10-09T09:38:54;98770.16;;;18.83;67.43
81545;BME280;70990;50.618;7.346;2023-10-09T09:41:23;98751.28;;;18.96;69.49
81545;BME280;70990;50.618;7.346;2023-10-09T09:43:57;98740.97;;;18.93;63.00
81545;BME280;70990;50.618;7.346;2023-10-09T09:46:24;98719.50;;;18.90;55.73
81545;BME280;70990;50.618;7.346;2023-10-09T09:48:51;98682.81;;;18.97;52.73
81545;BME280;70990;50.618;7.346;2023-10-09T09:51:18;98684.16;;;19.14;59.43
81545;BME280;70990;50.618;7.346;2023-10-09T09:53:45;98673.28;;;19.47;57.26
81545;BME280;70990;50.618;7.346;2023-10-09T09:56:14;98666.78;;;19.28;53.43
81545;BME280;70990;50.618;7.346;2023-10-09T09:58:43;98654.69;;;19.41;55.27
81545;BME280;70990;50.618;7.346;2023-10-09T10:01:12;98665.66;;;19.57;54.84
81545;BME280;70990;50.618;7.346;2023-10-09T10:03:44;98685.47;;;19.62;51.52
81545;BME280;70990;50.618;7.346;2023-10-09T10:06:13;98698.69;;;19.53;62.47
81545;BME280;70990;50.618;7.346;2023-10-09T10:08:43;98681.22;;;19.49;52.16
81545;BME280;70990;50.618;7.346;2023-10-09T10:11:46;98669.53;;;19.19;52.62
81545;BME280;70990;50.618;7.346;2023-10-09T10:14:13;98678.00;;;19.28;51.66
81545;BME280;70990;50.618;7.346;2023-10-09T10:20:02;98656.09;;;19.45;54.51
81545;BME280;70990;50.618;7.346;2023-10-09T10:22:29;98649.66;;;19.76;53.67
81545;BME280;70990;50.618;7.346;2023-10-09T10:24:57;98647.53;;;20.07;51.34
81545;BME280;70990;50.618;7.346;2023-10-09T10:27:26;98645.19;;;20.14;51.39
81545;BME280;70990;50.618;7.346;2023-10-09T10:32:57;98637.09;;;19.98;52.07
81545;BME280;70990;50.618;7.346;2023-10-09T10:35:25;98642.53;;;20.20;52.86
81545;BME280;70990;50.618;7.346;2023-10-09T10:37:51;98637.09;;;20.44;52.20
81545;BME280;70990;50.618;7.346;2023-10-09T10:40:25;98638.84;;;20.41;53.87
81545;BME280;70990;50.618;7.346;2023-10-09T10:42:52;98646.41;;;20.68;53.49
81545;BME280;70990;50.618;7.346;2023-10-09T10:45:19;98647.09;;;20.36;50.99
81545;BME280;70990;50.618;7.346;2023-10-09T10:47:47;98642.03;;;20.76;54.10
81545;BME280;70990;50.618;7.346;2023-10-09T10:50:14;98631.47;;;20.62;53.02
81545;BME280;70990;50.618;7.346;2023-10-09T10:52:41;98627.03;;;20.88;50.46
81545;BME280;70990;50.618;7.346;2023-10-09T10:55:09;98625.47;;;20.87;49.86
81545;BME280;70990;50.618;7.346;2023-10-09T10:57:37;98622.06;;;20.74;50.32
81545;BME280;70990;50.618;7.346;2023-10-09T11:00:10;98622.53;;;20.82;50.66
81545;BME280;70990;50.618;7.346;2023-10-09T11:02:39;98631.72;;;20.91;51.72
81545;BME280;70990;50.618;7.346;2023-10-09T11:05:07;98632.91;;;21.09;52.42
81545;BME280;70990;50.618;7.346;2023-10-09T11:07:34;98638.59;;;21.32;53.55
81545;BME280;70990;50.618;7.346;2023-10-09T11:10:01;98631.53;;;21.46;49.88
81545;BME280;70990;50.618;7.346;2023-10-09T11:12:27;98632.09;;;21.50;49.99
81545;BME280;70990;50.618;7.346;2023-10-09T11:14:54;98638.25;;;21.72;48.20
81545;BME280;70990;50.618;7.346;2023-10-09T11:17:21;98633.75;;;21.90;47.76
81545;BME280;70990;50.618;7.346;2023-10-09T11:19:48;98635.66;;;21.60;46.44
81545;BME280;70990;50.618;7.346;2023-10-09T11:22:15;98643.13;;;21.87;50.95
81545;BME280;70990;50.618;7.346;2023-10-09T11:27:08;98648.28;;;21.64;46.91
81545;BME280;70990;50.618;7.346;2023-10-09T11:29:36;98638.34;;;21.54;48.80
81545;BME280;70990;50.618;7.346;2023-10-09T11:32:17;98638.41;;;21.69;49.17
81545;BME280;70990;50.618;7.346;2023-10-09T11:34:48;98635.47;;;21.96;49.30
81545;BME280;70990;50.618;7.346;2023-10-09T11:37:15;98634.34;;;21.94;47.06
81545;BME280;70990;50.618;7.346;2023-10-09T11:39:42;98639.97;;;21.94;50.22
81545;BME280;70990;50.618;7.346;2023-10-09T11:42:09;98633.81;;;21.81;47.16
81545;BME280;70990;50.618;7.346;2023-10-09T11:44:42;98643.25;;;21.68;49.23
81545;BME280;70990;50.618;7.346;2023-10-09T11:47:09;98633.69;;;21.99;51.91
81545;BME280;70990;50.618;7.346;2023-10-09T11:49:49;98646.78;;;22.11;48.57
81545;BME280;70990;50.618;7.346;2023-10-09T11:52:16;98642.56;;;22.45;47.04
81545;BME280;70990;50.618;7.346;2023-10-09T11:54:43;98648.94;;;22.31;49.32
81545;BME280;70990;50.618;7.346;2023-10-09T11:57:09;98644.63;;;22.59;49.53
81545;BME280;70990;50.618;7.346;2023-10-09T11:59:36;98652.38;;;22.49;47.69
81545;BME280;70990;50.618;7.346;2023-10-09T12:02:09;98646.38;;;22.18;48.34
81545;BME280;70990;50.618;7.346;2023-10-09T12:04:36;98635.00;;;21.98;46.45
81545;BME280;70990;50.618;7.346;2023-10-09T12:07:03;98647.25;;;21.86;49.72
81545;BME280;70990;50.618;7.346;2023-10-09T12:09:29;98638.25;;;21.72;48.00
81545;BME280;70990;50.618;7.346;2023-10-09T12:11:56;98639.28;;;22.08;51.05
81545;BME280;70990;50.618;7.346;2023-10-09T12:14:30;98641.00;;;22.29;52.33
81545;BME280;70990;50.618;7.346;2023-10-09T12:16:57;98633.22;;;22.39;48.33
81545;BME280;70990;50.618;7.346;2023-10-09T12:19:24;98632.25;;;22.27;51.48
81545;BME280;70990;50.618;7.346;2023-10-09T12:21:52;98636.09;;;22.15;49.14
81545;BME280;70990;50.618;7.346;2023-10-09T12:24:18;98638.09;;;22.38;51.44
81545;BME280;70990;50.618;7.346;2023-10-09T12:26:45;98638.09;;;22.38;53.99
81545;BME280;70990;50.618;7.346;2023-10-09T12:29:12;98629.06;;;22.49;54.25
81545;BME280;70990;50.618;7.346;2023-10-09T12:31:39;98642.66;;;22.50;54.42
81545;BME280;70990;50.618;7.346;2023-10-09T12:34:06;98633.19;;;22.09;48.82
81545;BME280;70990;50.618;7.346;2023-10-09T12:36:32;98632.75;;;22.40;49.87
81545;BME280;70990;50.618;7.346;2023-10-09T12:38:59;98636.91;;;22.30;52.16
81545;BME280;70990;50.618;7.346;2023-10-09T12:41:25;98628.72;;;22.18;52.55
81545;BME280;70990;50.618;7.346;2023-10-09T12:43:56;98627.19;;;22.31;53.56
81545;BME280;70990;50.618;7.346;2023-10-09T12:46:23;98620.66;;;22.10;49.42
81545;BME280;70990;50.618;7.346;2023-10-09T12:48:50;98642.31;;;22.19;50.37
81545;BME280;70990;50.618;7.346;2023-10-09T12:51:16;98627.34;;;22.13;51.67
81545;BME280;70990;50.618;7.346;2023-10-09T12:53:44;98619.41;;;22.26;52.56
81545;BME280;70990;50.618;7.346;2023-10-09T12:56:11;98624.69;;;22.33;54.25
81545;BME280;70990;50.618;7.346;2023-10-09T12:58:38;98635.38;;;22.29;53.16
81545;BME280;70990;50.618;7.346;2023-10-09T13:01:09;98632.84;;;21.84;50.12
81545;BME280;70990;50.618;7.346;2023-10-09T13:03:36;98636.81;;;22.01;49.88
81545;BME280;70990;50.618;7.346;2023-10-09T13:06:02;98637.03;;;21.97;50.43
81545;BME280;70990;50.618;7.346;2023-10-09T13:08:29;98627.81;;;21.88;49.51
81545;BME280;70990;50.618;7.346;2023-10-09T13:10:56;98632.63;;;21.72;49.77
81545;BME280;70990;50.618;7.346;2023-10-09T13:13:22;98631.41;;;21.64;48.54
81545;BME280;70990;50.618;7.346;2023-10-09T13:15:49;98621.38;;;21.72;51.37